createdAt,value
2022-11-04T00:01:22.697Z,95096.09
2022-11-04T00:03:50.286Z,95102.84
2022-11-04T00:06:19.319Z,95121.03
2022-11-04T00:08:50.258Z,95134.03
2022-11-04T00:11:35.297Z,95133.63
2022-11-04T00:14:03.133Z,95142.97
2022-11-04T00:16:48.354Z,95146.09
2022-11-04T00:19:16.274Z,95139.75
2022-11-04T00:22:02.967Z,95122.66
2022-11-04T00:24:48.059Z,95131.56
2022-11-04T00:27:34.953Z,95124.72
2022-11-04T00:30:03.224Z,95124.53
2022-11-04T00:32:50.219Z,95137.31
2022-11-04T00:35:18.378Z,95135.59
2022-11-04T00:37:47.335Z,95134.94
2022-11-04T00:40:17.033Z,95133.69
2022-11-04T00:42:46.349Z,95136.53
2022-11-04T00:45:14.114Z,95142.81
2022-11-04T00:47:41.658Z,95139.34
2022-11-04T00:50:09.997Z,95145.78
2022-11-04T00:52:37.555Z,95151.06
2022-11-04T00:55:07.838Z,95153.94
2022-11-04T00:57:35.377Z,95156.97
2022-11-04T01:00:02.927Z,95155.31
2022-11-04T01:02:30.558Z,95159.50
2022-11-04T01:04:58.173Z,95155.91
2022-11-04T01:07:25.733Z,95160.81
2022-11-04T01:09:53.277Z,95161.91
2022-11-04T01:12:22.226Z,95175.53
2022-11-04T01:14:50.373Z,95171.47
2022-11-04T01:17:18.112Z,95184.03
2022-11-04T01:19:45.642Z,95186.75
2022-11-04T01:22:13.221Z,95195.84
2022-11-04T01:24:40.765Z,95208.44
2022-11-04T01:27:08.327Z,95204.75
2022-11-04T01:29:37.267Z,95210.56
2022-11-04T01:32:04.981Z,95208.59
2022-11-04T01:34:32.558Z,95209.66
2022-11-04T01:37:00.117Z,95221.78
2022-11-04T01:39:27.885Z,95225.44
2022-11-04T01:41:55.463Z,95213.00
2022-11-04T01:44:51.108Z,95214.09
2022-11-04T01:47:20.770Z,95212.88
2022-11-04T01:49:51.594Z,95219.22
2022-11-04T01:52:23.703Z,95229.63
2022-11-04T01:54:54.583Z,95246.00
2022-11-04T01:57:27.111Z,95241.91
2022-11-04T01:59:57.769Z,95257.56
2022-11-04T02:02:25.433Z,95253.28
2022-11-04T02:04:53.069Z,95245.44
2022-11-04T02:07:21.255Z,95261.66
2022-11-04T02:09:48.845Z,95259.13
2022-11-04T02:12:34.140Z,95263.97
2022-11-04T02:15:03.981Z,95258.94
2022-11-04T02:17:47.047Z,95266.34
2022-11-04T02:20:32.856Z,95267.72
2022-11-04T02:23:43.899Z,95273.94
2022-11-04T02:26:56.066Z,95279.50
2022-11-04T02:29:35.053Z,95270.56
2022-11-04T02:32:13.438Z,95270.72
2022-11-04T02:34:50.264Z,95273.84
2022-11-04T02:37:31.118Z,95274.00
2022-11-04T02:40:14.422Z,95269.34
2022-11-04T02:42:49.170Z,95273.38
2022-11-04T02:45:22.778Z,95269.63
2022-11-04T02:47:55.356Z,95267.00
2022-11-04T02:50:30.878Z,95284.53
2022-11-04T02:53:03.266Z,95270.59
2022-11-04T02:55:36.343Z,95276.78
2022-11-04T02:58:09.411Z,95278.94
2022-11-04T03:00:42.758Z,95271.66
2022-11-04T03:03:13.507Z,95284.63
2022-11-04T03:05:45.565Z,95287.09
2022-11-04T03:08:16.498Z,95278.69
2022-11-04T03:10:49.030Z,95291.03
2022-11-04T03:13:20.224Z,95290.84
2022-11-04T03:15:52.007Z,95287.28
2022-11-04T03:18:25.751Z,95289.13
2022-11-04T03:20:57.706Z,95294.47
2022-11-04T03:23:25.804Z,95297.31
2022-11-04T03:25:58.947Z,95302.38
2022-11-04T03:28:38.295Z,95301.53
2022-11-04T03:31:11.292Z,95308.31
2022-11-04T03:33:44.746Z,95311.84
2022-11-04T03:36:12.423Z,95302.91
2022-11-04T03:38:40.218Z,95294.78
2022-11-04T03:41:16.237Z,95301.78
2022-11-04T03:43:43.877Z,95300.53
2022-11-04T03:46:13.470Z,95294.31
2022-11-04T03:48:41.938Z,95291.19
2022-11-04T03:51:10.122Z,95291.03
2022-11-04T03:53:37.832Z,95297.22
2022-11-04T03:56:23.467Z,95295.69
2022-11-04T03:59:07.036Z,95301.78
2022-11-04T04:01:46.621Z,95305.75
2022-11-04T04:04:21.400Z,95301.34
2022-11-04T04:06:52.677Z,95298.16
2022-11-04T04:09:24.413Z,95291.47
2022-11-04T04:11:56.326Z,95300.34
2022-11-04T04:14:40.572Z,95292.56
2022-11-04T04:17:16.881Z,95291.56
2022-11-04T04:19:49.106Z,95294.88
2022-11-04T04:22:21.732Z,95286.16
2022-11-04T04:25:11.242Z,95288.19
2022-11-04T04:27:40.587Z,95290.06
2022-11-04T04:30:10.492Z,95287.28
2022-11-04T04:32:42.898Z,95282.63
2022-11-04T04:35:29.410Z,95288.88
2022-11-04T04:38:19.887Z,95289.28
2022-11-04T04:41:12.212Z,95294.88
2022-11-04T04:44:01.026Z,95280.34
2022-11-04T04:46:29.293Z,95277.84
2022-11-04T04:49:05.025Z,95278.44
2022-11-04T04:51:33.389Z,95280.19
2022-11-04T04:54:00.923Z,95278.22
2022-11-04T04:56:28.445Z,95271.84
2022-11-04T04:58:56.016Z,95265.31
2022-11-04T05:01:23.810Z,95272.38
2022-11-04T05:03:51.556Z,95263.31
2022-11-04T05:06:20.506Z,95250.47
2022-11-04T05:08:48.073Z,95252.34
2022-11-04T05:11:15.656Z,95260.03
2022-11-04T05:13:43.167Z,95259.22
2022-11-04T05:16:11.940Z,95253.59
2022-11-04T05:18:39.531Z,95247.25
2022-11-04T05:21:08.658Z,95235.66
2022-11-04T05:23:38.224Z,95256.50
2022-11-04T05:26:06.500Z,95255.84
2022-11-04T05:28:34.156Z,95240.94
2022-11-04T05:31:04.900Z,95231.97
2022-11-04T05:33:32.502Z,95230.00
2022-11-04T05:36:07.647Z,95226.22
2022-11-04T05:38:35.223Z,95235.91
2022-11-04T05:41:04.160Z,95248.44
2022-11-04T05:43:32.601Z,95255.00
2022-11-04T05:46:00.455Z,95250.03
2022-11-04T05:48:28.018Z,95254.38
2022-11-04T05:50:56.418Z,95259.56
2022-11-04T05:53:23.997Z,95265.78
2022-11-04T05:55:51.590Z,95268.63
2022-11-04T05:58:20.478Z,95269.19
2022-11-04T06:00:48.016Z,95273.66
2022-11-04T06:03:16.496Z,95290.41
2022-11-04T06:05:44.243Z,95300.66
2022-11-04T06:08:12.032Z,95302.44
2022-11-04T06:10:39.784Z,95302.34
2022-11-04T06:13:07.308Z,95293.06
2022-11-04T06:15:36.210Z,95288.44
2022-11-04T06:18:03.763Z,95293.59
2022-11-04T06:20:31.296Z,95285.78
2022-11-04T06:22:58.821Z,95296.59
2022-11-04T06:25:26.333Z,95297.78
2022-11-04T06:27:53.856Z,95297.22
2022-11-04T06:30:21.400Z,95300.81
2022-11-04T06:32:50.305Z,95302.03
2022-11-04T06:35:17.910Z,95302.75
2022-11-04T06:37:45.412Z,95315.88
2022-11-04T06:40:13.262Z,95313.59
2022-11-04T06:42:42.820Z,95306.00
2022-11-04T06:45:11.796Z,95301.97
2022-11-04T06:47:39.321Z,95298.84
2022-11-04T06:50:09.058Z,95309.44
2022-11-04T06:52:41.999Z,95317.34
2022-11-04T06:55:11.198Z,95318.44
2022-11-04T06:57:38.815Z,95308.22
2022-11-04T07:00:07.539Z,95314.63
2022-11-04T07:02:36.468Z,95316.81
2022-11-04T07:05:04.787Z,95312.03
2022-11-04T07:07:34.066Z,95308.56
2022-11-04T07:10:01.577Z,95308.41
2022-11-04T07:12:29.080Z,95307.66
2022-11-04T07:14:56.627Z,95297.50
2022-11-04T07:17:24.162Z,95288.91
2022-11-04T07:19:51.688Z,95294.25
2022-11-04T07:22:19.204Z,95286.78
2022-11-04T07:24:49.390Z,95289.22
2022-11-04T07:27:16.939Z,95302.19
2022-11-04T07:29:44.526Z,95297.59
2022-11-04T07:32:12.051Z,95286.91
2022-11-04T07:34:39.564Z,95277.66
2022-11-04T07:37:07.078Z,95265.44
2022-11-04T07:39:34.611Z,95266.06
2022-11-04T07:42:03.469Z,95253.13
2022-11-04T07:44:30.994Z,95255.63
2022-11-04T07:46:58.510Z,95275.41
2022-11-04T07:49:26.426Z,95280.31
2022-11-04T07:51:53.963Z,95290.00
2022-11-04T07:54:21.485Z,95293.97
2022-11-04T07:56:48.998Z,95300.94
2022-11-04T07:59:17.871Z,95292.88
2022-11-04T08:01:45.439Z,95299.06
2022-11-04T08:04:13.070Z,95298.28
2022-11-04T08:06:40.594Z,95305.63
2022-11-04T08:09:08.193Z,95314.94
2022-11-04T08:11:35.797Z,95323.88
2022-11-04T08:14:04.991Z,95333.78
2022-11-04T08:16:34.673Z,95338.38
2022-11-04T08:19:02.804Z,95338.34
2022-11-04T08:21:31.286Z,95348.22
2022-11-04T08:23:58.803Z,95359.31
2022-11-04T08:26:26.718Z,95373.75
2022-11-04T08:28:54.416Z,95377.78
2022-11-04T08:31:24.671Z,95378.28
2022-11-04T08:33:54.216Z,95358.50
2022-11-04T08:36:24.201Z,95352.72
2022-11-04T08:38:52.531Z,95354.25
2022-11-04T08:41:22.121Z,95356.91
2022-11-04T08:43:49.721Z,95352.53
2022-11-04T08:46:17.483Z,95351.81
2022-11-04T08:48:45.875Z,95358.81
2022-11-04T08:51:17.263Z,95356.22
2022-11-04T08:53:44.943Z,95360.66
2022-11-04T08:56:14.566Z,95354.19
2022-11-04T08:58:42.362Z,95356.13
2022-11-04T09:01:11.043Z,95352.53
2022-11-04T09:03:39.531Z,95341.44
2022-11-04T09:06:07.465Z,95335.94
2022-11-04T09:08:37.890Z,95328.94
2022-11-04T09:11:07.828Z,95323.56
2022-11-04T09:13:39.378Z,95329.78
2022-11-04T09:16:09.142Z,95318.44
2022-11-04T09:18:36.873Z,95322.84
2022-11-04T09:21:06.546Z,95321.81
2022-11-04T09:23:34.078Z,95315.84
2022-11-04T09:26:07.739Z,95321.91
2022-11-04T09:28:35.292Z,95315.72
2022-11-04T09:31:06.366Z,95310.03
2022-11-04T09:33:34.192Z,95315.69
2022-11-04T09:36:01.781Z,95309.50
2022-11-04T09:38:29.298Z,95319.00
2022-11-04T09:40:57.311Z,95319.72
2022-11-04T09:43:38.880Z,95322.03
2022-11-04T09:46:07.917Z,95314.72
2022-11-04T09:48:40.707Z,95312.81
2022-11-04T09:51:20.921Z,95310.72
2022-11-04T09:54:01.117Z,95307.38
2022-11-04T09:56:31.459Z,95303.28
2022-11-04T09:59:00.383Z,95296.44
2022-11-04T10:01:32.790Z,95289.72
2022-11-04T10:04:12.786Z,95297.38
2022-11-04T10:06:51.887Z,95292.59
2022-11-04T10:09:33.870Z,95290.81
2022-11-04T10:12:15.979Z,95272.75
2022-11-04T10:15:08.422Z,95278.84
2022-11-04T10:17:52.121Z,95279.06
2022-11-04T10:20:41.017Z,95276.75
2022-11-04T10:23:20.818Z,95275.09
2022-11-04T10:25:50.579Z,95287.47
2022-11-04T10:28:20.166Z,95292.47
2022-11-04T10:30:52.933Z,95299.13
2022-11-04T10:33:29.697Z,95295.38
2022-11-04T10:36:01.881Z,95305.72
2022-11-04T10:38:36.583Z,95314.06
2022-11-04T10:41:17.490Z,95308.88
2022-11-04T10:43:45.077Z,95303.97
2022-11-04T10:46:29.911Z,95295.16
2022-11-04T10:49:05.454Z,95293.75
2022-11-04T10:51:32.970Z,95296.38
2022-11-04T10:54:03.201Z,95288.25
2022-11-04T10:56:39.425Z,95289.66
2022-11-04T10:59:20.589Z,95293.94
2022-11-04T11:01:54.842Z,95283.44
2022-11-04T11:04:27.878Z,95284.81
2022-11-04T11:06:56.846Z,95291.84
2022-11-04T11:09:29.412Z,95277.25
2022-11-04T11:12:00.913Z,95265.25
2022-11-04T11:14:37.637Z,95263.41
2022-11-04T11:17:24.423Z,95262.53
2022-11-04T11:19:56.097Z,95265.03
2022-11-04T11:22:35.067Z,95255.97
2022-11-04T11:25:15.623Z,95262.94
2022-11-04T11:27:48.674Z,95261.75
2022-11-04T11:30:28.263Z,95245.75
2022-11-04T11:33:08.079Z,95245.47
2022-11-04T11:35:42.057Z,95246.75
2022-11-04T11:38:19.930Z,95246.88
2022-11-04T11:41:18.388Z,95247.25
2022-11-04T11:43:41.637Z,95230.09
2022-11-04T11:46:10.047Z,95254.72
2022-11-04T11:48:43.319Z,95251.28
2022-11-04T11:51:14.230Z,95248.03
2022-11-04T11:53:59.230Z,95260.47
2022-11-04T11:56:52.159Z,95257.34
2022-11-04T12:02:29.552Z,95263.16
2022-11-04T12:10:51.785Z,95276.09
2022-11-04T12:13:28.308Z,95279.97
2022-11-04T12:16:21.478Z,95282.81
2022-11-04T12:19:10.761Z,95292.53
2022-11-04T12:21:47.151Z,95287.00
2022-11-04T12:24:27.477Z,95288.06
2022-11-04T12:27:02.870Z,95288.50
2022-11-04T12:29:41.974Z,95298.75
2022-11-04T12:32:21.745Z,95301.25
2022-11-04T12:35:02.541Z,95288.53
2022-11-04T12:37:41.413Z,95287.13
2022-11-04T12:40:17.721Z,95281.13
2022-11-04T12:43:00.806Z,95280.56
2022-11-04T12:45:40.834Z,95282.75
2022-11-04T12:48:12.543Z,95283.31
2022-11-04T12:50:55.736Z,95297.44
2022-11-04T12:53:44.249Z,95295.66
2022-11-04T12:56:13.173Z,95296.34
2022-11-04T12:58:50.867Z,95293.19
2022-11-04T13:01:22.921Z,95297.47
2022-11-04T13:03:55.659Z,95299.88
2022-11-04T13:06:28.079Z,95297.72
2022-11-04T13:09:02.755Z,95298.34
2022-11-04T13:11:33.722Z,95294.47
2022-11-04T13:14:07.645Z,95293.59
2022-11-04T13:16:41.241Z,95291.91
2022-11-04T13:19:21.542Z,95287.44
2022-11-04T13:21:49.979Z,95295.38
2022-11-04T13:24:30.176Z,95294.63
2022-11-04T13:27:01.635Z,95296.47
2022-11-04T13:29:32.526Z,95292.28
2022-11-04T13:32:06.585Z,95293.28
2022-11-04T13:34:40.913Z,95291.09
2022-11-04T13:37:18.218Z,95296.19
2022-11-04T13:39:52.573Z,95293.59
2022-11-04T13:42:34.114Z,95302.31
2022-11-04T13:45:11.077Z,95313.81
2022-11-04T13:47:48.484Z,95311.97
2022-11-04T13:50:36.520Z,95324.34
2022-11-04T13:53:05.189Z,95327.63
2022-11-04T13:55:35.444Z,95333.72
2022-11-04T13:58:05.975Z,95330.59
2022-11-04T14:00:34.319Z,95337.94
2022-11-04T14:03:22.350Z,95337.84
2022-11-04T14:06:05.270Z,95340.88
2022-11-04T14:08:33.369Z,95343.03
2022-11-04T14:11:12.951Z,95338.22
2022-11-04T14:14:02.335Z,95346.88
2022-11-04T14:16:41.572Z,95341.75
2022-11-04T14:19:57.225Z,95346.81
2022-11-04T14:22:38.765Z,95339.13
2022-11-04T14:25:25.817Z,95334.53
2022-11-04T14:27:55.542Z,95342.72
2022-11-04T14:30:33.781Z,95340.00
2022-11-04T14:33:04.553Z,95345.84
2022-11-04T14:35:33.041Z,95353.78
2022-11-04T14:38:07.335Z,95350.94
2022-11-04T14:40:52.147Z,95358.66
2022-11-04T14:43:31.033Z,95354.69
2022-11-04T14:46:00.808Z,95354.03
2022-11-04T14:48:29.662Z,95360.00
2022-11-04T14:50:58.164Z,95367.34
2022-11-04T14:53:32.800Z,95368.75
2022-11-04T14:56:15.000Z,95363.13
2022-11-04T14:58:56.068Z,95370.63
2022-11-04T15:01:26.532Z,95375.34
2022-11-04T15:04:13.349Z,95373.44
2022-11-04T15:06:54.387Z,95381.41
2022-11-04T15:09:26.273Z,95373.50
2022-11-04T15:12:20.477Z,95382.66
2022-11-04T15:14:48.340Z,95386.09
2022-11-04T15:17:20.714Z,95382.31
2022-11-04T15:19:51.539Z,95384.03
2022-11-04T15:22:19.982Z,95379.50
2022-11-04T15:24:50.545Z,95387.34
2022-11-04T15:27:20.653Z,95388.31
2022-11-04T15:29:54.853Z,95390.72
2022-11-04T15:32:22.635Z,95389.09
2022-11-04T15:34:50.757Z,95383.56
2022-11-04T15:37:18.538Z,95398.13
2022-11-04T15:39:48.495Z,95396.34
2022-11-04T15:42:42.900Z,95403.84
2022-11-04T15:45:29.018Z,95398.88
2022-11-04T15:48:31.214Z,95396.91
2022-11-04T15:51:11.386Z,95409.22
2022-11-04T15:53:49.724Z,95413.81
2022-11-04T15:56:18.686Z,95414.75
2022-11-04T15:58:48.155Z,95408.38
2022-11-04T16:01:17.105Z,95410.69
2022-11-04T16:03:51.079Z,95411.91
2022-11-04T16:06:19.016Z,95422.94
2022-11-04T16:09:01.507Z,95429.34
2022-11-04T16:11:29.201Z,95420.00
2022-11-04T16:14:15.455Z,95419.78
2022-11-04T16:16:48.536Z,95422.56
2022-11-04T16:19:23.247Z,95426.50
2022-11-04T16:21:59.890Z,95420.50
2022-11-04T16:24:30.608Z,95425.22
2022-11-04T16:26:58.400Z,95420.31
2022-11-04T16:29:30.186Z,95425.69
2022-11-04T16:32:18.067Z,95423.94
2022-11-04T16:34:46.092Z,95437.31
2022-11-04T16:37:13.710Z,95429.84
2022-11-04T16:39:41.650Z,95437.31
2022-11-04T16:42:12.434Z,95435.13
2022-11-04T16:44:41.563Z,95436.41
2022-11-04T16:47:11.482Z,95432.41
2022-11-04T16:49:39.011Z,95438.34
2022-11-04T16:52:14.119Z,95436.91
2022-11-04T16:54:42.115Z,95434.41
2022-11-04T16:57:13.839Z,95439.72
2022-11-04T16:59:43.316Z,95435.66
2022-11-04T17:02:24.255Z,95440.09
2022-11-04T17:04:51.926Z,95442.41
2022-11-04T17:07:19.508Z,95445.50
2022-11-04T17:09:47.147Z,95445.56
2022-11-04T17:12:14.689Z,95446.75
2022-11-04T17:14:43.641Z,95444.31
2022-11-04T17:17:12.011Z,95442.66
2022-11-04T17:19:39.608Z,95456.78
2022-11-04T17:22:08.927Z,95457.75
2022-11-04T17:24:37.421Z,95450.34
2022-11-04T17:27:06.396Z,95458.91
2022-11-04T17:29:33.940Z,95461.56
2022-11-04T17:32:02.892Z,95466.47
2022-11-04T17:34:30.468Z,95458.06
2022-11-04T17:36:57.982Z,95461.47
2022-11-04T17:39:25.505Z,95476.31
2022-11-04T17:42:10.817Z,95468.59
2022-11-04T17:44:38.351Z,95470.44
2022-11-04T17:47:07.203Z,95471.06
2022-11-04T17:49:37.601Z,95479.66
2022-11-04T17:52:05.356Z,95476.56
2022-11-04T17:54:33.134Z,95477.72
2022-11-04T17:57:00.898Z,95473.03
2022-11-04T17:59:33.841Z,95484.69
2022-11-04T18:02:04.057Z,95482.81
2022-11-04T18:04:33.143Z,95487.28
2022-11-04T18:07:02.985Z,95484.78
2022-11-04T18:09:31.030Z,95493.75
2022-11-04T18:12:16.522Z,95498.56
2022-11-04T18:14:44.078Z,95505.50
2022-11-04T18:17:11.705Z,95497.34
2022-11-04T18:19:40.943Z,95501.28
2022-11-04T18:22:08.489Z,95501.88
2022-11-04T18:24:36.273Z,95505.03
2022-11-04T18:27:03.890Z,95513.28
2022-11-04T18:29:31.637Z,95509.69
2022-11-04T18:31:59.164Z,95514.81
2022-11-04T18:34:26.666Z,95517.25
2022-11-04T18:36:56.763Z,95526.44
2022-11-04T18:39:24.481Z,95529.22
2022-11-04T18:41:52.062Z,95527.19
2022-11-04T18:44:21.362Z,95534.06
2022-11-04T18:46:49.690Z,95535.94
2022-11-04T18:49:18.133Z,95543.94
2022-11-04T18:51:45.786Z,95548.44
2022-11-04T18:54:15.683Z,95549.84
2022-11-04T18:56:43.795Z,95546.53
2022-11-04T18:59:11.700Z,95540.00
2022-11-04T19:01:39.617Z,95551.94
2022-11-04T19:04:07.382Z,95551.38
2022-11-04T19:06:36.474Z,95555.66
2022-11-04T19:09:25.208Z,95549.75
2022-11-04T19:12:10.080Z,95547.16
2022-11-04T19:14:38.458Z,95558.06
2022-11-04T19:17:06.013Z,95564.22
2022-11-04T19:19:33.528Z,95572.72
2022-11-04T19:22:01.091Z,95578.63
2022-11-04T19:24:29.030Z,95576.06
2022-11-04T19:26:57.905Z,95577.91
2022-11-04T19:29:25.933Z,95573.19
2022-11-04T19:31:53.443Z,95582.13
2022-11-04T19:34:21.089Z,95587.28
2022-11-04T19:36:48.891Z,95587.09
2022-11-04T19:39:16.506Z,95592.75
2022-11-04T19:42:01.473Z,95581.47
2022-11-04T19:44:32.372Z,95591.00
2022-11-04T19:47:00.038Z,95590.63
2022-11-04T19:49:31.085Z,95599.41
2022-11-04T19:51:58.805Z,95594.75
2022-11-04T19:54:26.665Z,95608.22
2022-11-04T19:56:54.236Z,95614.59
2022-11-04T19:59:21.817Z,95629.56
2022-11-04T20:01:50.824Z,95636.19
2022-11-04T20:04:18.813Z,95644.31
2022-11-04T20:06:46.357Z,95639.53
2022-11-04T20:09:14.088Z,95646.53
2022-11-04T20:11:56.289Z,95649.69
2022-11-04T20:14:23.846Z,95646.97
2022-11-04T20:16:52.779Z,95656.88
2022-11-04T20:19:22.954Z,95655.56
2022-11-04T20:21:51.700Z,95660.94
2022-11-04T20:24:19.267Z,95662.09
2022-11-04T20:26:47.597Z,95658.84
2022-11-04T20:29:16.531Z,95670.50
2022-11-04T20:31:45.482Z,95676.13
2022-11-04T20:34:15.092Z,95693.63
2022-11-04T20:36:42.985Z,95683.53
2022-11-04T20:39:14.489Z,95682.72
2022-11-04T20:41:42.275Z,95690.50
2022-11-04T20:44:11.124Z,95693.81
2022-11-04T20:46:38.762Z,95695.13
2022-11-04T20:49:06.342Z,95698.59
2022-11-04T20:51:37.451Z,95710.66
2022-11-04T20:54:07.108Z,95713.47
2022-11-04T20:56:36.814Z,95717.09
2022-11-04T20:59:05.969Z,95715.47
2022-11-04T21:01:35.742Z,95714.16
2022-11-04T21:04:06.299Z,95717.28
2022-11-04T21:06:38.100Z,95714.81
2022-11-04T21:09:06.689Z,95718.31
2022-11-04T21:11:35.118Z,95719.09
2022-11-04T21:14:02.714Z,95721.25
2022-11-04T21:16:31.167Z,95716.16
2022-11-04T21:18:59.616Z,95718.13
2022-11-04T21:21:28.229Z,95713.84
2022-11-04T21:24:01.230Z,95717.63
2022-11-04T21:26:31.265Z,95724.72
2022-11-04T21:29:01.329Z,95716.31
2022-11-04T21:31:30.540Z,95719.56
2022-11-04T21:33:59.229Z,95718.66
2022-11-04T21:36:26.847Z,95719.47
2022-11-04T21:38:54.434Z,95724.13
2022-11-04T21:41:25.899Z,95717.44
2022-11-04T21:43:56.647Z,95723.75
2022-11-04T21:46:24.756Z,95723.59
2022-11-04T21:48:52.299Z,95733.56
2022-11-04T21:51:21.877Z,95737.38
2022-11-04T21:53:49.864Z,95733.28
2022-11-04T21:56:19.454Z,95737.72
2022-11-04T21:58:48.671Z,95740.34
2022-11-04T22:01:18.635Z,95745.41
2022-11-04T22:03:50.835Z,95757.50
2022-11-04T22:06:18.752Z,95752.69
2022-11-04T22:08:49.424Z,95744.38
2022-11-04T22:11:19.834Z,95749.56
2022-11-04T22:13:48.798Z,95747.88
2022-11-04T22:16:19.285Z,95756.13
2022-11-04T22:18:47.631Z,95754.94
2022-11-04T22:21:17.905Z,95749.09
2022-11-04T22:23:46.252Z,95755.53
2022-11-04T22:26:16.567Z,95760.09
2022-11-04T22:28:44.103Z,95763.31
2022-11-04T22:31:16.016Z,95770.66
2022-11-04T22:33:43.849Z,95773.25
2022-11-04T22:36:12.354Z,95771.41
2022-11-04T22:38:41.623Z,95763.97
2022-11-04T22:41:11.592Z,95778.81
2022-11-04T22:43:39.615Z,95770.94
2022-11-04T22:46:09.336Z,95773.59
2022-11-04T22:48:38.667Z,95771.97
2022-11-04T22:51:06.838Z,95780.06
2022-11-04T22:53:34.375Z,95779.03
2022-11-04T22:56:02.969Z,95780.91
2022-11-04T22:58:30.905Z,95779.34
2022-11-04T23:01:00.273Z,95777.16
2022-11-04T23:03:28.289Z,95778.00
2022-11-04T23:05:59.079Z,95784.91
2022-11-04T23:08:28.003Z,95791.16
2022-11-04T23:11:15.848Z,95779.44
2022-11-04T23:14:08.231Z,95781.78
2022-11-04T23:16:53.229Z,95792.69
2022-11-04T23:19:20.780Z,95786.47
2022-11-04T23:22:07.049Z,95782.81
2022-11-04T23:24:52.299Z,95775.59
2022-11-04T23:27:34.228Z,95789.38
2022-11-04T23:30:19.325Z,95793.31
2022-11-04T23:32:46.861Z,95783.72
2022-11-04T23:35:32.264Z,95784.34
2022-11-04T23:38:01.411Z,95782.59
2022-11-04T23:40:31.094Z,95788.34
2022-11-04T23:42:57.883Z,95782.28
2022-11-04T23:45:42.931Z,95780.56
2022-11-04T23:48:28.930Z,95784.44
2022-11-04T23:51:15.393Z,95797.75
2022-11-04T23:54:02.061Z,95794.66
2022-11-04T23:56:47.601Z,95796.38
2022-11-04T23:59:34.839Z,95798.34
